createdAt,value
2019-05-25T00:01:20.926Z,10.90
2019-05-25T00:03:47.543Z,10.70
2019-05-25T00:06:14.194Z,10.23
2019-05-25T00:08:40.723Z,11.00
2019-05-25T00:11:07.227Z,11.23
2019-05-25T00:13:33.787Z,10.80
2019-05-25T00:16:00.400Z,11.47
2019-05-25T00:18:26.927Z,11.43
2019-05-25T00:20:53.577Z,15.07
2019-05-25T00:23:20.104Z,17.47
2019-05-25T00:25:46.522Z,12.50
2019-05-25T00:28:13.006Z,11.87
2019-05-25T00:30:39.424Z,12.67
2019-05-25T00:33:05.935Z,12.57
2019-05-25T00:35:32.595Z,11.93
2019-05-25T00:37:59.105Z,13.97
2019-05-25T00:40:25.623Z,13.50
2019-05-25T00:42:53.625Z,13.10
2019-05-25T00:45:20.205Z,12.27
2019-05-25T00:47:46.836Z,12.77
2019-05-25T00:50:13.485Z,13.27
2019-05-25T00:52:40.088Z,12.10
2019-05-25T00:55:07.693Z,12.60
2019-05-25T00:57:34.174Z,12.13
2019-05-25T01:00:01.020Z,12.97
2019-05-25T01:02:27.622Z,14.47
2019-05-25T01:04:54.194Z,13.07
2019-05-25T01:07:20.826Z,13.17
2019-05-25T01:09:47.469Z,12.83
2019-05-25T01:12:13.896Z,12.97
2019-05-25T01:14:40.515Z,15.93
2019-05-25T01:17:07.084Z,12.77
2019-05-25T01:19:33.720Z,13.40
2019-05-25T01:22:00.375Z,12.27
2019-05-25T01:24:41.133Z,12.23
2019-05-25T01:26:55.114Z,12.17
2019-05-25T01:29:21.573Z,12.37
2019-05-25T01:31:48.163Z,12.70
2019-05-25T01:34:14.755Z,12.23
2019-05-25T01:36:41.251Z,11.83
2019-05-25T01:39:07.915Z,11.97
2019-05-25T01:41:34.424Z,11.77
2019-05-25T01:44:00.927Z,12.20
2019-05-25T01:46:27.383Z,11.43
2019-05-25T01:48:53.885Z,11.73
2019-05-25T01:51:20.392Z,11.33
2019-05-25T01:53:47.365Z,11.60
2019-05-25T01:56:13.777Z,11.93
2019-05-25T01:58:40.185Z,12.30
2019-05-25T02:01:06.836Z,11.23
2019-05-25T02:03:33.449Z,11.93
2019-05-25T02:05:59.852Z,11.37
2019-05-25T02:08:26.308Z,11.33
2019-05-25T02:10:52.822Z,11.67
2019-05-25T02:13:19.244Z,12.10
2019-05-25T02:15:46.257Z,11.47
2019-05-25T02:18:12.760Z,13.33
2019-05-25T02:20:39.258Z,14.80
2019-05-25T02:23:05.711Z,12.07
2019-05-25T02:25:32.229Z,11.53
2019-05-25T02:27:58.621Z,11.07
2019-05-25T02:30:25.284Z,10.53
2019-05-25T02:32:52.365Z,10.87
2019-05-25T02:35:25.321Z,11.83
2019-05-25T02:37:52.256Z,11.53
2019-05-25T02:40:19.562Z,11.60
2019-05-25T02:42:46.473Z,11.40
2019-05-25T02:45:13.628Z,11.17
2019-05-25T02:47:40.022Z,11.47
2019-05-25T02:50:06.739Z,11.00
2019-05-25T02:52:33.413Z,11.67
2019-05-25T02:55:00.033Z,11.63
2019-05-25T02:57:26.545Z,11.83
2019-05-25T02:59:52.972Z,13.13
2019-05-25T03:02:19.965Z,14.37
2019-05-25T03:04:46.510Z,13.00
2019-05-25T03:07:13.102Z,12.17
2019-05-25T03:09:40.209Z,12.97
2019-05-25T03:12:06.852Z,12.50
2019-05-25T03:14:33.885Z,13.13
2019-05-25T03:17:00.380Z,13.57
2019-05-25T03:19:26.932Z,13.43
2019-05-25T03:21:53.463Z,12.40
2019-05-25T03:24:20.003Z,11.70
2019-05-25T03:26:46.554Z,13.03
2019-05-25T03:29:13.058Z,12.00
2019-05-25T03:31:39.572Z,12.40
2019-05-25T03:34:06.214Z,12.20
2019-05-25T03:36:34.109Z,12.63
2019-05-25T03:39:00.806Z,12.90
2019-05-25T03:41:27.325Z,13.30
2019-05-25T03:43:53.842Z,12.53
2019-05-25T03:46:20.282Z,12.40
2019-05-25T03:48:46.790Z,12.43
2019-05-25T03:51:13.293Z,12.23
2019-05-25T03:53:39.813Z,12.50
2019-05-25T03:56:06.638Z,12.53
2019-05-25T03:58:33.403Z,13.10
2019-05-25T04:01:00.006Z,13.03
2019-05-25T04:03:26.459Z,12.47
2019-05-25T04:05:53.063Z,13.47
2019-05-25T04:08:19.673Z,14.50
2019-05-25T04:10:46.232Z,12.93
2019-05-25T04:13:12.635Z,13.80
2019-05-25T04:15:39.107Z,13.23
2019-05-25T04:18:05.534Z,13.93
2019-05-25T04:20:32.129Z,13.27
2019-05-25T04:22:58.920Z,13.70
2019-05-25T04:25:25.375Z,14.53
2019-05-25T04:27:51.876Z,14.77
2019-05-25T04:30:19.686Z,14.80
2019-05-25T04:32:46.245Z,15.93
2019-05-25T04:35:13.249Z,15.10
2019-05-25T04:37:40.183Z,14.83
2019-05-25T04:40:07.797Z,15.07
2019-05-25T04:42:34.429Z,14.23
2019-05-25T04:45:01.076Z,13.50
2019-05-25T04:47:27.584Z,14.37
2019-05-25T04:49:54.031Z,14.57
2019-05-25T04:52:20.947Z,14.40
2019-05-25T04:54:47.352Z,14.30
2019-05-25T04:57:13.961Z,13.67
2019-05-25T04:59:40.489Z,13.90
2019-05-25T05:02:07.103Z,14.17
2019-05-25T05:04:33.770Z,14.60
2019-05-25T05:07:00.329Z,13.33
2019-05-25T05:09:26.743Z,13.70
2019-05-25T05:11:53.535Z,13.40
2019-05-25T05:14:20.089Z,13.70
2019-05-25T05:16:46.593Z,12.87
2019-05-25T05:19:13.011Z,12.00
2019-05-25T05:21:39.560Z,12.80
2019-05-25T05:24:06.060Z,11.60
2019-05-25T05:26:32.471Z,11.70
2019-05-25T05:28:58.942Z,10.77
2019-05-25T05:31:25.559Z,10.83
2019-05-25T05:33:52.109Z,9.97
2019-05-25T05:36:20.224Z,10.00
2019-05-25T05:38:48.846Z,9.30
2019-05-25T05:41:17.005Z,9.27
2019-05-25T05:43:47.938Z,8.83
2019-05-25T05:46:16.239Z,8.70
2019-05-25T05:48:47.810Z,8.70
2019-05-25T05:51:18.022Z,9.43
2019-05-25T05:53:46.317Z,8.63
2019-05-25T05:56:12.729Z,8.03
2019-05-25T05:58:39.708Z,8.83
2019-05-25T06:01:06.272Z,9.00
2019-05-25T06:03:32.776Z,8.87
2019-05-25T06:05:59.349Z,9.07
2019-05-25T06:08:26.153Z,8.43
2019-05-25T06:10:52.756Z,8.60
2019-05-25T06:13:19.677Z,8.73
2019-05-25T06:15:46.299Z,8.20
2019-05-25T06:18:12.703Z,8.63
2019-05-25T06:20:39.323Z,8.30
2019-05-25T06:23:08.642Z,8.30
2019-05-25T06:25:35.114Z,8.23
2019-05-25T06:28:01.626Z,8.60
2019-05-25T06:30:28.282Z,7.90
2019-05-25T06:32:54.811Z,7.80
2019-05-25T06:35:21.233Z,6.83
2019-05-25T06:37:47.720Z,5.97
2019-05-25T06:40:14.419Z,5.63
2019-05-25T06:42:40.946Z,6.37
2019-05-25T06:45:09.622Z,12.57
2019-05-25T06:47:36.043Z,5.97
2019-05-25T06:50:04.731Z,5.33
2019-05-25T06:52:37.220Z,5.80
2019-05-25T06:55:06.014Z,5.40
2019-05-25T06:57:42.603Z,5.80
2019-05-25T07:00:01.142Z,5.80
2019-05-25T07:02:27.538Z,5.87
2019-05-25T07:04:54.198Z,6.30
2019-05-25T07:07:20.926Z,6.37
2019-05-25T07:09:47.382Z,5.30
2019-05-25T07:12:13.782Z,5.70
2019-05-25T07:14:40.338Z,5.50
2019-05-25T07:17:06.735Z,6.03
2019-05-25T07:19:33.155Z,5.57
2019-05-25T07:22:02.542Z,5.50
2019-05-25T07:24:28.973Z,6.20
2019-05-25T07:26:56.090Z,5.47
2019-05-25T07:29:22.554Z,5.00
2019-05-25T07:31:49.050Z,4.67
2019-05-25T07:34:15.938Z,6.57
2019-05-25T07:36:42.586Z,5.60
2019-05-25T07:39:08.998Z,37.73
2019-05-25T07:41:35.530Z,6.10
2019-05-25T07:44:02.109Z,4.67
2019-05-25T07:46:30.566Z,5.30
2019-05-25T07:48:57.091Z,5.87
2019-05-25T07:51:23.976Z,5.33
2019-05-25T07:53:50.643Z,4.73
2019-05-25T07:56:17.041Z,5.20
2019-05-25T07:58:43.457Z,5.00
2019-05-25T08:01:09.981Z,4.50
2019-05-25T08:03:39.635Z,5.37
2019-05-25T08:06:04.974Z,4.37
2019-05-25T08:08:31.566Z,4.73
2019-05-25T08:10:58.026Z,4.97
2019-05-25T08:13:24.547Z,4.77
2019-05-25T08:15:51.150Z,4.50
2019-05-25T08:18:17.619Z,4.37
2019-05-25T08:20:47.055Z,4.90
2019-05-25T08:23:12.377Z,4.90
2019-05-25T08:25:38.958Z,4.53
2019-05-25T08:28:06.190Z,4.47
2019-05-25T08:30:32.692Z,4.50
2019-05-25T08:33:01.262Z,4.23
2019-05-25T08:35:28.278Z,4.70
2019-05-25T08:37:54.687Z,4.10
2019-05-25T08:40:21.243Z,4.60
2019-05-25T08:42:47.646Z,3.97
2019-05-25T08:45:14.282Z,4.13
2019-05-25T08:47:40.942Z,4.17
2019-05-25T08:50:08.011Z,4.33
2019-05-25T08:52:34.618Z,4.13
2019-05-25T08:55:01.429Z,3.77
2019-05-25T08:57:28.402Z,3.87
2019-05-25T08:59:54.790Z,4.03
2019-05-25T09:02:21.349Z,3.23
2019-05-25T09:04:48.341Z,2.60
2019-05-25T09:07:14.856Z,2.45
2019-05-25T09:09:41.392Z,2.93
2019-05-25T09:12:07.902Z,2.70
2019-05-25T09:14:34.412Z,3.00
2019-05-25T09:17:01.075Z,2.50
2019-05-25T09:19:29.416Z,2.90
2019-05-25T09:22:02.530Z,2.65
2019-05-25T09:24:24.677Z,3.17
2019-05-25T09:26:51.496Z,2.72
2019-05-25T09:29:18.119Z,2.80
2019-05-25T09:31:44.537Z,3.00
2019-05-25T09:34:11.219Z,3.67
2019-05-25T09:36:37.946Z,2.87
2019-05-25T09:39:06.474Z,3.10
2019-05-25T09:41:33.187Z,17.98
2019-05-25T09:43:59.889Z,3.33
2019-05-25T09:46:26.581Z,3.80
2019-05-25T09:48:53.106Z,3.20
2019-05-25T09:51:19.725Z,3.30
2019-05-25T09:53:46.189Z,8.88
2019-05-25T09:56:14.792Z,3.47
2019-05-25T09:58:41.312Z,3.37
2019-05-25T10:01:08.106Z,3.50
2019-05-25T10:03:34.498Z,3.40
2019-05-25T10:06:10.073Z,3.70
2019-05-25T10:08:29.834Z,3.60
2019-05-25T10:10:56.329Z,3.42
2019-05-25T10:13:22.927Z,3.30
2019-05-25T10:15:49.449Z,3.50
2019-05-25T10:18:15.905Z,3.53
2019-05-25T10:20:42.429Z,3.53
2019-05-25T10:23:08.915Z,2.97
2019-05-25T10:25:35.611Z,3.00
2019-05-25T10:28:02.777Z,2.60
2019-05-25T10:30:29.377Z,2.98
2019-05-25T10:32:55.904Z,3.02
2019-05-25T10:35:22.379Z,2.60
2019-05-25T10:37:48.806Z,2.80
2019-05-25T10:40:15.921Z,2.50
2019-05-25T10:42:42.369Z,2.47
2019-05-25T10:45:10.643Z,3.50
2019-05-25T10:47:37.259Z,2.83
2019-05-25T10:50:10.748Z,2.30
2019-05-25T10:52:37.952Z,2.58
2019-05-25T10:55:09.302Z,2.33
2019-05-25T10:57:36.272Z,2.75
2019-05-25T11:00:08.445Z,2.57
2019-05-25T11:02:35.049Z,2.62
2019-05-25T11:05:02.400Z,2.65
2019-05-25T11:07:28.945Z,2.53
2019-05-25T11:09:55.562Z,4.50
2019-05-25T11:12:25.802Z,2.45
2019-05-25T11:14:50.627Z,2.40
2019-05-25T11:17:17.124Z,2.72
2019-05-25T11:19:43.762Z,2.42
2019-05-25T11:22:10.706Z,2.15
2019-05-25T11:24:37.189Z,2.45
2019-05-25T11:27:03.745Z,2.62
2019-05-25T11:29:30.181Z,2.50
2019-05-25T11:32:01.657Z,2.70
2019-05-25T11:34:24.960Z,2.50
2019-05-25T11:36:52.065Z,2.50
2019-05-25T11:39:18.665Z,2.70
2019-05-25T11:41:45.069Z,2.72
2019-05-25T11:44:11.470Z,2.75
2019-05-25T11:46:38.024Z,2.50
2019-05-25T11:49:04.535Z,6.92
2019-05-25T11:51:31.512Z,2.47
2019-05-25T11:53:58.071Z,2.40
2019-05-25T11:56:24.511Z,2.40
2019-05-25T11:58:51.038Z,2.40
2019-05-25T12:01:17.451Z,2.40
2019-05-25T12:03:43.907Z,2.45
2019-05-25T12:06:10.701Z,2.77
2019-05-25T12:08:37.251Z,2.90
2019-05-25T12:11:04.465Z,2.20
2019-05-25T12:13:32.219Z,2.10
2019-05-25T12:15:59.254Z,2.45
2019-05-25T12:18:25.909Z,2.20
2019-05-25T12:20:52.304Z,3.17
2019-05-25T12:23:18.844Z,2.35
2019-05-25T12:25:45.542Z,2.52
2019-05-25T12:28:12.050Z,2.40
2019-05-25T12:30:41.162Z,2.35
2019-05-25T12:33:07.118Z,2.37
2019-05-25T12:35:33.717Z,2.42
2019-05-25T12:38:00.255Z,2.50
2019-05-25T12:40:26.901Z,2.67
2019-05-25T12:42:53.307Z,2.37
2019-05-25T12:45:21.911Z,2.50
2019-05-25T12:47:48.568Z,2.50
2019-05-25T12:50:15.736Z,2.45
2019-05-25T12:52:42.373Z,2.62
2019-05-25T12:55:09.183Z,2.70
2019-05-25T12:57:35.597Z,2.70
2019-05-25T13:00:14.736Z,2.67
2019-05-25T13:02:33.138Z,2.60
2019-05-25T13:04:59.642Z,2.25
2019-05-25T13:07:26.150Z,2.77
2019-05-25T13:09:52.607Z,2.40
2019-05-25T13:12:19.118Z,2.87
2019-05-25T13:14:45.619Z,2.47
2019-05-25T13:17:12.287Z,2.65
2019-05-25T13:19:38.714Z,2.83
2019-05-25T13:22:05.210Z,2.92
2019-05-25T13:24:32.267Z,2.70
2019-05-25T13:26:58.775Z,2.65
2019-05-25T13:29:25.210Z,2.52
2019-05-25T13:31:51.900Z,2.55
2019-05-25T13:34:18.901Z,2.42
2019-05-25T13:36:45.862Z,2.60
2019-05-25T13:39:12.468Z,2.40
2019-05-25T13:41:38.959Z,2.50
2019-05-25T13:44:05.650Z,2.10
2019-05-25T13:46:32.074Z,13.18
2019-05-25T13:48:58.530Z,3.35
2019-05-25T13:51:24.977Z,2.52
2019-05-25T13:53:51.581Z,2.20
2019-05-25T13:56:18.241Z,2.50
2019-05-25T13:58:45.254Z,5.67
2019-05-25T14:01:25.599Z,2.50
2019-05-25T14:03:40.136Z,2.95
2019-05-25T14:06:06.649Z,3.08
2019-05-25T14:08:33.091Z,2.50
2019-05-25T14:10:59.502Z,2.60
2019-05-25T14:13:26.020Z,2.60
2019-05-25T14:16:06.711Z,2.47
2019-05-25T14:18:22.804Z,2.67
2019-05-25T14:20:49.402Z,2.62
2019-05-25T14:23:15.876Z,2.72
2019-05-25T14:25:42.646Z,2.67
2019-05-25T14:28:09.166Z,2.55
2019-05-25T14:30:36.033Z,2.80
2019-05-25T14:33:02.594Z,2.45
2019-05-25T14:35:29.479Z,2.92
2019-05-25T14:37:55.922Z,2.75
2019-05-25T14:40:22.569Z,2.70
2019-05-25T14:42:51.676Z,3.00
2019-05-25T14:45:18.746Z,2.95
2019-05-25T14:47:45.302Z,2.50
2019-05-25T14:50:12.531Z,3.22
2019-05-25T14:52:39.092Z,2.70
2019-05-25T14:55:07.199Z,2.83
2019-05-25T14:57:33.637Z,3.00
2019-05-25T15:00:00.261Z,3.05
2019-05-25T15:02:27.296Z,3.20
2019-05-25T15:04:56.297Z,2.98
2019-05-25T15:07:22.937Z,2.90
2019-05-25T15:09:49.436Z,3.00
2019-05-25T15:12:16.011Z,2.90
2019-05-25T15:14:42.420Z,2.80
2019-05-25T15:17:08.963Z,2.90
2019-05-25T15:19:35.549Z,3.10
2019-05-25T15:22:02.388Z,4.12
2019-05-25T15:24:29.784Z,3.65
2019-05-25T15:26:56.411Z,19.57
2019-05-25T15:29:22.912Z,9.50
2019-05-25T15:31:49.434Z,5.30
2019-05-25T15:34:16.090Z,2.72
2019-05-25T15:36:42.610Z,2.80
2019-05-25T15:39:09.220Z,2.90
2019-05-25T15:41:35.663Z,2.70
2019-05-25T15:44:02.768Z,2.87
2019-05-25T15:46:29.754Z,3.20
2019-05-25T15:48:56.316Z,2.58
2019-05-25T15:51:22.831Z,2.70
2019-05-25T15:53:49.338Z,3.00
2019-05-25T15:56:15.906Z,2.52
2019-05-25T15:58:42.306Z,3.05
2019-05-25T16:01:08.801Z,2.95
2019-05-25T16:03:35.805Z,3.22
2019-05-25T16:06:02.413Z,3.72
2019-05-25T16:08:29.042Z,3.20
2019-05-25T16:10:56.095Z,3.12
2019-05-25T16:13:22.713Z,2.92
2019-05-25T16:15:49.147Z,3.10
2019-05-25T16:18:15.757Z,6.13
2019-05-25T16:20:42.360Z,5.00
2019-05-25T16:23:09.011Z,4.08
2019-05-25T16:25:35.694Z,3.17
2019-05-25T16:28:02.762Z,3.00
2019-05-25T16:30:31.568Z,3.63
2019-05-25T16:33:11.589Z,3.43
2019-05-25T16:35:26.008Z,3.27
2019-05-25T16:37:52.603Z,3.33
2019-05-25T16:40:19.665Z,3.53
2019-05-25T16:42:46.257Z,3.43
2019-05-25T16:45:13.325Z,3.30
2019-05-25T16:47:40.373Z,3.37
2019-05-25T16:50:07.882Z,3.57
2019-05-25T16:52:34.367Z,3.10
2019-05-25T16:55:01.453Z,3.50
2019-05-25T16:57:28.107Z,3.40
2019-05-25T16:59:54.509Z,20.33
2019-05-25T17:02:21.027Z,3.80
2019-05-25T17:04:47.575Z,3.80
2019-05-25T17:07:14.243Z,3.70
2019-05-25T17:09:41.389Z,3.97
2019-05-25T17:12:08.313Z,4.03
2019-05-25T17:14:34.644Z,3.93
2019-05-25T17:17:01.181Z,3.80
2019-05-25T17:19:27.605Z,4.20
2019-05-25T17:21:54.111Z,4.03
2019-05-25T17:24:20.722Z,3.70
2019-05-25T17:26:47.259Z,4.50
2019-05-25T17:29:13.958Z,3.97
2019-05-25T17:31:40.480Z,4.00
2019-05-25T17:34:07.142Z,4.60
2019-05-25T17:36:33.537Z,3.90
2019-05-25T17:39:00.132Z,4.23
2019-05-25T17:41:27.191Z,4.43
2019-05-25T17:43:54.149Z,4.17
2019-05-25T17:46:20.570Z,3.90
2019-05-25T17:48:48.069Z,4.33
2019-05-25T17:51:14.810Z,3.97
2019-05-25T17:53:41.249Z,11.70
2019-05-25T17:56:07.959Z,4.30
2019-05-25T17:58:34.353Z,4.20
2019-05-25T18:01:00.921Z,4.17
2019-05-25T18:03:27.553Z,4.07
2019-05-25T18:05:54.961Z,4.17
2019-05-25T18:08:21.930Z,4.10
2019-05-25T18:10:53.510Z,4.13
2019-05-25T18:13:17.000Z,4.20
2019-05-25T18:15:43.602Z,4.23
2019-05-25T18:18:10.212Z,4.10
2019-05-25T18:20:36.874Z,3.90
2019-05-25T18:23:04.596Z,4.37
2019-05-25T18:25:31.508Z,4.00
2019-05-25T18:27:58.138Z,4.00
2019-05-25T18:30:26.344Z,4.10
2019-05-25T18:32:53.397Z,4.33
2019-05-25T18:35:19.991Z,4.33
2019-05-25T18:37:46.590Z,4.50
2019-05-25T18:40:14.545Z,4.33
2019-05-25T18:42:40.983Z,4.73
2019-05-25T18:45:08.842Z,4.70
2019-05-25T18:47:35.583Z,4.30
2019-05-25T18:50:05.814Z,4.70
2019-05-25T18:52:32.498Z,4.77
2019-05-25T18:54:58.896Z,4.63
2019-05-25T18:57:25.604Z,4.77
2019-05-25T18:59:52.249Z,4.53
2019-05-25T19:02:19.151Z,4.57
2019-05-25T19:04:58.049Z,4.30
2019-05-25T19:07:13.945Z,4.70
2019-05-25T19:09:40.360Z,5.80
2019-05-25T19:12:06.976Z,4.53
2019-05-25T19:14:33.428Z,4.60
2019-05-25T19:17:00.038Z,4.83
2019-05-25T19:19:26.567Z,4.70
2019-05-25T19:21:53.219Z,5.90
2019-05-25T19:24:19.641Z,5.27
2019-05-25T19:26:49.022Z,12.77
2019-05-25T19:29:15.938Z,5.30
2019-05-25T19:31:42.339Z,5.20
2019-05-25T19:34:08.952Z,6.27
2019-05-25T19:36:35.523Z,4.70
2019-05-25T19:39:04.953Z,5.20
2019-05-25T19:41:31.505Z,4.90
2019-05-25T19:43:58.033Z,5.17
2019-05-25T19:46:24.611Z,4.93
2019-05-25T19:48:51.141Z,5.57
2019-05-25T19:51:17.748Z,5.03
2019-05-25T19:53:46.619Z,5.10
2019-05-25T19:56:13.270Z,5.00
2019-05-25T19:58:39.789Z,5.00
2019-05-25T20:01:06.354Z,5.53
2019-05-25T20:03:32.766Z,6.10
2019-05-25T20:05:59.254Z,35.17
2019-05-25T20:08:25.797Z,21.27
2019-05-25T20:10:55.475Z,5.80
2019-05-25T20:13:20.809Z,5.17
2019-05-25T20:15:48.013Z,5.60
2019-05-25T20:18:14.520Z,5.87
2019-05-25T20:20:41.034Z,5.47
2019-05-25T20:23:07.778Z,5.87
2019-05-25T20:25:34.184Z,6.23
2019-05-25T20:28:00.647Z,6.33
2019-05-25T20:30:27.177Z,8.90
2019-05-25T20:32:53.680Z,10.83
2019-05-25T20:35:32.233Z,7.67
2019-05-25T20:37:48.572Z,6.70
2019-05-25T20:40:15.338Z,6.67
2019-05-25T20:42:42.106Z,6.47
2019-05-25T20:45:09.675Z,7.80
2019-05-25T20:47:36.389Z,8.97
2019-05-25T20:50:07.055Z,8.33
2019-05-25T20:52:33.669Z,7.13
2019-05-25T20:55:00.494Z,8.33
2019-05-25T20:57:26.979Z,8.33
2019-05-25T20:59:54.833Z,7.63
2019-05-25T21:02:21.386Z,8.33
2019-05-25T21:04:47.793Z,8.00
2019-05-25T21:07:14.193Z,6.57
2019-05-25T21:09:40.744Z,6.93
2019-05-25T21:12:07.370Z,6.37
2019-05-25T21:14:33.793Z,6.73
2019-05-25T21:17:00.601Z,6.30
2019-05-25T21:19:27.034Z,6.73
2019-05-25T21:21:53.546Z,42.33
2019-05-25T21:24:20.247Z,67.90
2019-05-25T21:26:46.678Z,7.17
2019-05-25T21:29:13.311Z,6.80
2019-05-25T21:31:40.201Z,6.93
2019-05-25T21:34:06.706Z,7.17
2019-05-25T21:36:33.169Z,8.27
2019-05-25T21:38:59.575Z,8.03
2019-05-25T21:41:26.071Z,9.20
2019-05-25T21:43:52.958Z,8.93
2019-05-25T21:46:19.473Z,8.80
2019-05-25T21:48:46.504Z,8.10
2019-05-25T21:51:13.017Z,8.37
2019-05-25T21:53:39.523Z,7.47
2019-05-25T21:56:06.090Z,8.13
2019-05-25T21:58:33.100Z,7.90
2019-05-25T22:00:59.770Z,7.50
2019-05-25T22:03:27.223Z,7.17
2019-05-25T22:05:53.722Z,7.80
2019-05-25T22:08:20.272Z,8.77
2019-05-25T22:10:46.775Z,31.77
2019-05-25T22:13:25.243Z,7.97
2019-05-25T22:15:41.851Z,8.00
2019-05-25T22:18:08.398Z,8.03
2019-05-25T22:20:34.891Z,7.47
2019-05-25T22:23:01.606Z,6.77
2019-05-25T22:25:29.262Z,7.13
2019-05-25T22:27:57.611Z,7.37
2019-05-25T22:30:24.309Z,6.77
2019-05-25T22:32:51.018Z,6.70
2019-05-25T22:35:18.134Z,7.00
2019-05-25T22:37:44.616Z,6.90
2019-05-25T22:40:11.515Z,7.70
2019-05-25T22:42:38.045Z,7.77
2019-05-25T22:45:06.333Z,8.00
2019-05-25T22:47:33.090Z,7.47
2019-05-25T22:50:01.705Z,7.00
2019-05-25T22:52:28.296Z,6.83
2019-05-25T22:54:54.930Z,7.13
2019-05-25T22:57:21.540Z,6.90
2019-05-25T22:59:48.103Z,6.90
2019-05-25T23:02:14.502Z,7.57
2019-05-25T23:04:40.914Z,7.03
2019-05-25T23:07:07.997Z,7.23
2019-05-25T23:09:34.966Z,7.70
2019-05-25T23:12:01.969Z,7.53
2019-05-25T23:14:28.435Z,7.90
2019-05-25T23:16:55.002Z,7.73
2019-05-25T23:19:21.562Z,7.43
2019-05-25T23:21:47.952Z,6.80
2019-05-25T23:24:14.349Z,8.33
2019-05-25T23:26:40.849Z,7.37
2019-05-25T23:29:07.483Z,6.97
2019-05-25T23:31:33.887Z,7.27
2019-05-25T23:34:00.902Z,7.17
2019-05-25T23:36:27.306Z,6.90
2019-05-25T23:38:53.754Z,6.90
2019-05-25T23:41:20.558Z,6.97
2019-05-25T23:43:47.065Z,7.47
2019-05-25T23:46:13.509Z,7.30
2019-05-25T23:48:39.992Z,7.13
2019-05-25T23:51:06.399Z,7.07
2019-05-25T23:53:33.363Z,7.80
2019-05-25T23:55:59.859Z,7.27
2019-05-25T23:58:26.375Z,6.87
